Time;durP1;ratioP1;P1;durP2;ratioP2;P2;SDS_P1;SDS_P2;PMS_P1;PMS_P2;Temp;Humidity;BMP_temperature;BMP_pressure;BME280_temperature;BME280_humidity;BME280_pressure;Samples;Min_cycle;Max_cycle;Signal;HPM_P1;HPM_P2
2021/07/01 00:01:53;;;;;;;20.92;13.18;;;14.90;99.90;;;;;;4991189;28;20014;-35
2021/07/01 00:04:19;;;;;;;20.83;13.18;;;14.90;99.90;;;;;;4986857;28;20496;-35
2021/07/01 00:06:45;;;;;;;19.20;12.90;;;14.90;99.90;;;;;;4991656;28;20030;-34
2021/07/01 00:09:15;;;;;;;21.73;13.90;;;14.90;99.90;;;;;;4990341;28;20034;-35
2021/07/01 00:11:42;;;;;;;16.02;11.75;;;14.90;99.90;;;;;;4991043;28;20380;-35
2021/07/01 00:14:07;;;;;;;13.93;10.32;;;14.90;99.90;;;;;;4990549;28;20502;-35
2021/07/01 00:16:33;;;;;;;19.13;12.13;;;14.90;99.90;;;;;;4990744;28;20014;-35
2021/07/01 00:18:59;;;;;;;21.95;13.95;;;14.90;99.90;;;;;;4990249;28;20585;-35
2021/07/01 00:21:24;;;;;;;22.00;14.00;;;14.80;99.90;;;;;;4990511;28;20031;-35
2021/07/01 00:23:50;;;;;;;20.02;13.75;;;14.90;99.90;;;;;;4991043;28;20015;-35
2021/07/01 00:26:16;;;;;;;19.45;13.25;;;14.80;99.90;;;;;;4990951;28;20358;-35
2021/07/01 00:28:41;;;;;;;20.08;12.80;;;14.80;99.90;;;;;;4989999;28;20026;-35
2021/07/01 00:31:07;;;;;;;19.42;13.32;;;14.80;99.90;;;;;;4991047;28;20031;-35
2021/07/01 00:33:32;;;;;;;25.73;13.68;;;14.80;99.90;;;;;;4990686;28;20062;-35
2021/07/01 00:35:58;;;;;;;18.88;14.15;;;14.80;99.90;;;;;;4990547;28;20026;-35
2021/07/01 00:38:23;;;;;;;21.60;13.07;;;14.70;99.90;;;;;;4991385;28;20397;-35
2021/07/01 00:40:49;;;;;;;21.15;14.40;;;14.80;99.90;;;;;;4990603;28;20040;-35
2021/07/01 00:43:15;;;;;;;18.25;12.70;;;14.80;99.90;;;;;;4990347;28;20034;-36
2021/07/01 00:45:40;;;;;;;21.48;12.43;;;14.80;99.90;;;;;;4990713;28;20015;-35
2021/07/01 00:48:06;;;;;;;20.10;12.80;;;14.70;99.90;;;;;;4990944;28;20088;-36
2021/07/01 00:50:32;;;;;;;21.13;12.18;;;14.80;99.90;;;;;;4990059;28;20032;-35
2021/07/01 00:52:57;;;;;;;25.02;13.60;;;14.80;99.90;;;;;;4990105;28;20058;-35
2021/07/01 00:55:23;;;;;;;19.95;13.10;;;14.80;99.90;;;;;;4990249;28;20417;-35
2021/07/01 00:57:49;;;;;;;21.25;14.25;;;14.80;99.90;;;;;;4989931;28;20053;-35
2021/07/01 01:02:55;;;;;;;26.38;14.60;;;14.80;99.90;;;;;;4990221;28;20054;-35
2021/07/01 01:05:21;;;;;;;22.63;14.38;;;14.70;99.90;;;;;;4990105;28;20462;-35
2021/07/01 01:07:48;;;;;;;23.15;13.93;;;14.70;99.90;;;;;;4990897;28;20117;-35
2021/07/01 01:10:14;;;;;;;20.23;12.77;;;14.70;99.90;;;;;;4989934;28;20358;-35
2021/07/01 01:12:40;;;;;;;20.52;12.68;;;14.70;99.90;;;;;;4990379;28;20038;-35
2021/07/01 01:15:06;;;;;;;17.90;11.43;;;14.70;99.90;;;;;;4990451;28;20421;-35
2021/07/01 01:17:31;;;;;;;19.10;12.18;;;14.70;99.90;;;;;;4989626;28;20031;-35
2021/07/01 01:19:57;;;;;;;20.90;12.15;;;14.70;99.90;;;;;;4989651;28;20023;-35
2021/07/01 01:22:25;;;;;;;17.45;11.23;;;14.70;99.90;;;;;;4990754;28;20073;-35
2021/07/01 01:24:50;;;;;;;18.90;11.68;;;14.70;99.90;;;;;;4989711;28;20160;-35
2021/07/01 01:27:16;;;;;;;16.55;11.18;;;14.70;99.90;;;;;;4989820;28;20524;-35
2021/07/01 01:29:43;;;;;;;18.90;10.93;;;14.70;99.90;;;;;;4989890;28;20355;-35
2021/07/01 01:32:09;;;;;;;19.38;10.43;;;14.70;99.90;;;;;;4990286;28;20037;-35
2021/07/01 01:34:34;;;;;;;14.63;9.40;;;14.70;99.90;;;;;;4990349;28;20027;-35
2021/07/01 01:37:00;;;;;;;16.95;10.30;;;14.70;99.90;;;;;;4990051;28;20022;-35
2021/07/01 01:39:25;;;;;;;22.70;9.65;;;14.70;99.90;;;;;;4990010;28;20023;-35
2021/07/01 01:41:51;;;;;;;20.10;9.88;;;14.70;99.90;;;;;;4989581;28;20030;-35
2021/07/01 01:44:16;;;;;;;19.55;10.38;;;14.70;99.90;;;;;;4990286;28;20042;-35
2021/07/01 01:46:42;;;;;;;17.70;10.23;;;14.70;99.90;;;;;;4989450;28;20030;-35
2021/07/01 01:49:09;;;;;;;17.73;9.88;;;14.70;99.90;;;;;;4990878;28;20018;-36
2021/07/01 01:51:35;;;;;;;15.73;8.75;;;14.70;99.90;;;;;;4989828;28;20026;-35
2021/07/01 01:54:07;;;;;;;16.30;9.10;;;14.70;99.90;;;;;;4988916;28;20040;-35
2021/07/01 01:56:37;;;;;;;13.43;8.47;;;14.70;99.90;;;;;;4989707;28;20026;-35
2021/07/01 01:59:07;;;;;;;11.60;7.68;;;14.70;99.90;;;;;;4989831;28;20033;-35
2021/07/01 02:01:33;;;;;;;16.13;8.30;;;14.70;99.90;;;;;;4989411;28;20118;-35
2021/07/01 02:03:59;;;;;;;14.77;8.43;;;14.70;99.90;;;;;;4988444;28;20129;-35
2021/07/01 02:06:25;;;;;;;16.05;7.88;;;14.70;99.90;;;;;;4989190;28;20022;-35
2021/07/01 02:08:51;;;;;;;19.75;8.20;;;14.70;99.90;;;;;;4990228;28;20065;-35
2021/07/01 02:11:17;;;;;;;16.77;8.13;;;14.60;99.90;;;;;;4989789;28;20019;-35
2021/07/01 02:13:42;;;;;;;13.85;7.60;;;14.60;99.90;;;;;;4989473;28;20426;-34
2021/07/01 02:16:10;;;;;;;12.43;7.85;;;14.60;99.90;;;;;;4990370;28;20122;-35
2021/07/01 02:18:35;;;;;;;10.85;6.95;;;14.60;99.90;;;;;;4988374;28;20024;-35
2021/07/01 02:21:02;;;;;;;15.25;8.02;;;14.60;99.90;;;;;;4989149;28;20022;-35
2021/07/01 02:23:27;;;;;;;11.85;7.25;;;14.60;99.90;;;;;;4989769;28;20385;-35
2021/07/01 02:25:53;;;;;;;17.17;9.63;;;14.60;99.90;;;;;;4989732;28;20018;-36
2021/07/01 02:28:19;;;;;;;15.68;7.97;;;14.60;99.90;;;;;;4989667;28;20026;-36
2021/07/01 02:30:44;;;;;;;13.43;7.47;;;14.50;99.90;;;;;;4989001;28;20429;-35
2021/07/01 02:33:10;;;;;;;14.23;8.27;;;14.60;99.90;;;;;;4989200;28;20077;-35
2021/07/01 02:35:35;;;;;;;11.80;8.10;;;14.60;99.90;;;;;;4989457;28;20018;-36
2021/07/01 02:38:01;;;;;;;13.05;7.88;;;14.50;99.90;;;;;;4989258;28;20386;-35
2021/07/01 02:40:27;;;;;;;12.15;7.72;;;14.50;99.90;;;;;;4991672;28;20061;-35
2021/07/01 02:42:52;;;;;;;14.48;7.68;;;14.50;99.90;;;;;;4992691;28;20026;-35
2021/07/01 02:45:18;;;;;;;13.52;7.07;;;14.50;99.90;;;;;;4984822;28;20512;-35
2021/07/01 02:47:44;;;;;;;16.83;8.35;;;14.50;99.90;;;;;;4992801;28;20055;-35
2021/07/01 02:50:10;;;;;;;16.30;8.52;;;14.40;99.90;;;;;;4992349;28;20033;-35
2021/07/01 02:52:36;;;;;;;17.63;8.30;;;14.40;99.90;;;;;;4992887;28;20028;-36
2021/07/01 02:55:04;;;;;;;13.45;7.88;;;14.40;99.90;;;;;;4992488;28;20033;-36
2021/07/01 02:57:29;;;;;;;16.70;9.02;;;14.40;99.90;;;;;;4992793;28;20023;-35
2021/07/01 02:59:55;;;;;;;18.60;9.23;;;14.30;99.90;;;;;;4992357;28;20109;-35
2021/07/01 03:02:20;;;;;;;22.33;9.45;;;14.30;99.90;;;;;;4993302;28;20030;-35
2021/07/01 03:04:46;;;;;;;18.17;9.65;;;14.30;99.90;;;;;;4991802;28;20105;-36
2021/07/01 03:07:12;;;;;;;19.83;9.18;;;14.30;99.90;;;;;;4992663;28;20042;-35
2021/07/01 03:09:37;;;;;;;11.73;7.88;;;14.30;99.90;;;;;;4992441;28;20041;-35
2021/07/01 03:12:03;;;;;;;15.32;8.30;;;14.20;99.90;;;;;;4992004;28;20026;-35
2021/07/01 03:14:29;;;;;;;12.38;7.93;;;14.20;99.90;;;;;;4992999;28;20503;-35
2021/07/01 03:16:55;;;;;;;20.27;10.32;;;14.20;99.90;;;;;;4991667;28;20054;-35
2021/07/01 03:19:21;;;;;;;16.33;8.40;;;14.20;99.90;;;;;;4992356;28;20026;-35
2021/07/01 03:21:46;;;;;;;17.48;8.40;;;14.20;99.90;;;;;;4992102;28;20084;-35
2021/07/01 03:24:12;;;;;;;18.35;9.20;;;14.20;99.90;;;;;;4991929;28;20021;-35
2021/07/01 03:26:38;;;;;;;17.27;8.20;;;14.20;99.90;;;;;;4992556;28;20038;-35
2021/07/01 03:29:03;;;;;;;22.92;9.00;;;14.20;99.90;;;;;;4992063;28;20022;-36
2021/07/01 03:31:29;;;;;;;21.63;8.70;;;14.20;99.90;;;;;;4991916;28;20331;-35
2021/07/01 03:33:54;;;;;;;15.65;7.70;;;14.20;99.90;;;;;;4991676;28;20035;-35
2021/07/01 03:36:20;;;;;;;17.48;8.40;;;14.20;99.90;;;;;;4992425;28;20018;-35
2021/07/01 03:38:46;;;;;;;12.18;7.32;;;14.20;99.90;;;;;;4991843;28;20027;-35
2021/07/01 03:41:12;;;;;;;16.15;6.82;;;14.20;99.90;;;;;;4992102;28;20025;-35
2021/07/01 03:43:42;;;;;;;15.77;7.95;;;14.20;99.90;;;;;;4992022;28;20022;-35
2021/07/01 03:46:08;;;;;;;16.55;7.95;;;14.20;99.90;;;;;;4991514;28;20370;-36
2021/07/01 03:48:35;;;;;;;17.20;7.93;;;14.20;99.90;;;;;;4992363;28;20030;-35
2021/07/01 03:51:01;;;;;;;14.40;6.28;;;14.20;99.90;;;;;;4990670;28;20038;-35
2021/07/01 03:53:27;;;;;;;18.52;7.70;;;14.30;99.90;;;;;;4991927;28;20092;-35
2021/07/01 03:55:52;;;;;;;16.27;7.65;;;14.20;99.90;;;;;;4991433;28;20022;-36
2021/07/01 03:58:18;;;;;;;17.83;8.52;;;14.20;99.90;;;;;;4991611;28;20038;-36
2021/07/01 04:00:43;;;;;;;17.60;7.93;;;14.20;99.90;;;;;;4991238;28;20020;-35
2021/07/01 04:03:09;;;;;;;15.80;7.00;;;14.20;99.90;;;;;;4991454;28;20058;-36
2021/07/01 04:05:34;;;;;;;11.65;6.47;;;14.30;99.90;;;;;;4991469;28;20029;-36
2021/07/01 04:08:00;;;;;;;18.95;8.25;;;14.30;99.90;;;;;;4990755;28;20113;-35
2021/07/01 04:10:26;;;;;;;17.55;7.38;;;14.30;99.90;;;;;;4991644;28;20081;-36
2021/07/01 04:12:51;;;;;;;13.40;7.03;;;14.30;99.90;;;;;;4991098;28;20055;-35
2021/07/01 04:15:17;;;;;;;17.67;8.38;;;14.30;99.90;;;;;;4991075;28;20033;-36
2021/07/01 04:17:42;;;;;;;12.90;6.65;;;14.30;99.90;;;;;;4991251;28;20034;-35
2021/07/01 04:20:08;;;;;;;14.63;7.75;;;14.30;99.90;;;;;;4990993;28;20057;-36
2021/07/01 04:22:34;;;;;;;16.15;7.13;;;14.30;99.90;;;;;;4991276;28;20022;-35
2021/07/01 04:25:00;;;;;;;17.85;7.60;;;14.30;99.90;;;;;;4991225;28;20015;-35
2021/07/01 04:27:26;;;;;;;18.13;8.23;;;14.30;99.90;;;;;;4990936;28;20033;-35
2021/07/01 04:29:54;;;;;;;16.00;7.80;;;14.30;99.90;;;;;;4990843;28;20022;-35
2021/07/01 04:32:21;;;;;;;17.35;7.32;;;14.40;99.90;;;;;;4990603;28;20374;-35
2021/07/01 04:34:47;;;;;;;11.60;7.35;;;14.30;99.90;;;;;;4990897;28;20365;-35
2021/07/01 04:37:12;;;;;;;19.30;8.70;;;14.40;99.90;;;;;;4990637;28;20014;-36
2021/07/01 04:39:38;;;;;;;13.15;7.55;;;14.40;99.90;;;;;;4991167;28;20437;-35
2021/07/01 04:42:04;;;;;;;14.45;7.65;;;14.40;99.90;;;;;;4990410;28;20022;-35
2021/07/01 04:44:29;;;;;;;13.63;7.25;;;14.40;99.90;;;;;;4990570;28;20033;-36
2021/07/01 04:46:55;;;;;;;11.27;7.03;;;14.40;99.90;;;;;;4989599;28;20488;-36
2021/07/01 04:49:21;;;;;;;12.90;7.00;;;14.40;99.90;;;;;;4990293;28;20065;-35
2021/07/01 04:51:46;;;;;;;14.50;7.85;;;14.40;99.90;;;;;;4989960;28;20105;-35
2021/07/01 04:54:12;;;;;;;15.18;7.38;;;14.40;99.90;;;;;;4990274;28;20381;-35
2021/07/01 04:56:44;;;;;;;16.52;8.82;;;14.40;99.90;;;;;;4990008;28;20033;-35
2021/07/01 04:59:11;;;;;;;21.42;8.23;;;14.40;99.90;;;;;;4986578;28;20033;-35
2021/07/01 05:01:37;;;;;;;19.40;8.48;;;14.40;99.90;;;;;;4989967;28;20377;-35
2021/07/01 05:04:03;;;;;;;11.52;7.25;;;14.40;99.90;;;;;;4988794;28;20043;-36
2021/07/01 05:06:29;;;;;;;14.48;7.80;;;14.40;99.90;;;;;;4990322;28;20029;-36
2021/07/01 05:08:54;;;;;;;15.57;7.68;;;14.40;99.90;;;;;;4989587;28;20030;-35
2021/07/01 05:11:20;;;;;;;12.80;7.50;;;14.40;99.90;;;;;;4989663;28;20034;-35
2021/07/01 05:13:45;;;;;;;13.93;7.82;;;14.40;99.90;;;;;;4989708;28;20038;-35
2021/07/01 05:16:11;;;;;;;16.48;7.90;;;14.40;99.90;;;;;;4990485;28;20532;-35
2021/07/01 05:18:36;;;;;;;17.17;8.77;;;14.40;99.90;;;;;;4989299;28;20462;-35
2021/07/01 05:21:02;;;;;;;13.80;8.38;;;14.50;99.90;;;;;;4989556;28;20024;-36
2021/07/01 05:23:28;;;;;;;18.55;9.05;;;14.40;99.90;;;;;;4989559;28;20414;-35
2021/07/01 05:25:53;;;;;;;19.33;8.90;;;14.40;99.90;;;;;;4989697;28;20421;-35
2021/07/01 05:28:19;;;;;;;19.73;9.73;;;14.50;99.90;;;;;;4990338;28;20034;-35
2021/07/01 05:30:44;;;;;;;21.27;10.25;;;14.50;99.90;;;;;;4989119;28;20048;-35
2021/07/01 05:33:10;;;;;;;14.85;9.00;;;14.40;99.90;;;;;;4989131;28;20469;-35
2021/07/01 05:35:36;;;;;;;12.63;7.65;;;14.40;99.90;;;;;;4990114;28;20098;-35
2021/07/01 05:38:01;;;;;;;18.50;8.35;;;14.40;99.90;;;;;;4989051;28;20072;-35
2021/07/01 05:40:27;;;;;;;16.02;8.48;;;14.40;99.90;;;;;;4990330;28;20093;-35
2021/07/01 05:42:53;;;;;;;14.93;9.00;;;14.50;99.90;;;;;;4989818;28;20033;-35
2021/07/01 05:45:19;;;;;;;16.85;8.57;;;14.50;99.90;;;;;;4989284;28;20023;-36
2021/07/01 05:47:44;;;;;;;13.48;8.27;;;14.50;99.90;;;;;;4989475;28;20576;-35
2021/07/01 05:50:11;;;;;;;16.25;7.47;;;14.50;99.90;;;;;;4989273;28;20026;-35
2021/07/01 05:52:39;;;;;;;15.02;8.70;;;14.50;99.90;;;;;;4988573;28;20509;-35
2021/07/01 05:55:05;;;;;;;14.07;8.82;;;14.50;99.90;;;;;;4989719;28;20026;-35
2021/07/01 05:57:31;;;;;;;18.45;8.85;;;14.50;99.90;;;;;;4971842;28;20377;-35
2021/07/01 05:59:57;;;;;;;16.40;8.85;;;14.50;99.90;;;;;;4977324;28;20023;-35
2021/07/01 06:02:23;;;;;;;18.17;8.98;;;14.60;99.90;;;;;;4988054;28;20056;-35
2021/07/01 06:04:49;;;;;;;14.40;8.50;;;14.50;99.90;;;;;;4987838;28;20061;-35
2021/07/01 06:07:19;;;;;;;16.48;9.05;;;14.50;99.90;;;;;;4987923;28;20038;-35
2021/07/01 06:09:46;;;;;;;11.05;6.85;;;14.50;99.90;;;;;;4978593;28;20022;-36
2021/07/01 06:12:12;;;;;;;14.60;7.78;;;14.50;99.90;;;;;;4988617;28;20026;-35
2021/07/01 06:14:39;;;;;;;11.32;6.95;;;14.50;99.90;;;;;;4991092;28;20037;-35
2021/07/01 06:17:06;;;;;;;15.50;8.02;;;14.50;99.90;;;;;;4992897;28;20022;-35
2021/07/01 06:19:33;;;;;;;13.82;8.38;;;14.50;99.90;;;;;;4992506;28;20233;-35
2021/07/01 06:21:59;;;;;;;15.10;7.88;;;14.50;99.90;;;;;;4990836;28;20298;-35
2021/07/01 06:24:25;;;;;;;12.43;7.70;;;14.60;99.90;;;;;;4993877;28;20465;-35
2021/07/01 06:26:50;;;;;;;13.85;7.75;;;14.60;99.90;;;;;;4990793;28;20042;-35
2021/07/01 06:29:17;;;;;;;9.80;6.97;;;14.70;99.90;;;;;;4983944;28;20467;-35
2021/07/01 06:31:43;;;;;;;12.80;7.32;;;14.70;99.90;;;;;;4992664;28;20061;-36
2021/07/01 06:34:08;;;;;;;11.88;7.38;;;14.80;99.90;;;;;;4992274;28;20062;-35
2021/07/01 06:36:37;;;;;;;14.27;7.30;;;14.80;99.90;;;;;;4991661;28;20393;-35
2021/07/01 06:39:06;;;;;;;11.35;7.13;;;14.80;99.90;;;;;;4992854;28;20026;-35
2021/07/01 06:41:35;;;;;;;12.82;7.63;;;14.80;99.90;;;;;;4986067;28;20027;-35
2021/07/01 06:44:02;;;;;;;16.70;8.45;;;14.90;99.90;;;;;;4992763;28;20370;-35
2021/07/01 06:46:31;;;;;;;20.70;9.20;;;15.00;99.90;;;;;;4990768;28;20486;-35
2021/07/01 06:48:57;;;;;;;16.45;8.05;;;15.00;99.90;;;;;;4989319;28;20118;-35
2021/07/01 06:51:23;;;;;;;14.65;8.38;;;15.00;99.90;;;;;;4990502;28;20459;-34
2021/07/01 06:53:52;;;;;;;15.77;9.20;;;15.10;99.90;;;;;;4988257;28;20049;-35
2021/07/01 06:56:21;;;;;;;13.93;8.20;;;15.00;99.90;;;;;;4990793;28;20018;-35
2021/07/01 06:58:47;;;;;;;13.15;7.95;;;15.00;99.90;;;;;;4987382;28;20018;-35
2021/07/01 07:01:13;;;;;;;14.70;8.30;;;15.00;99.90;;;;;;4991846;28;20031;-35
2021/07/01 07:03:38;;;;;;;18.90;8.90;;;15.10;99.90;;;;;;4991496;28;20085;-35
2021/07/01 07:06:05;;;;;;;16.02;8.07;;;15.00;99.90;;;;;;4989960;28;20027;-35
2021/07/01 07:08:31;;;;;;;16.50;9.85;;;15.10;99.90;;;;;;4992264;28;20022;-35
2021/07/01 07:10:58;;;;;;;16.73;9.95;;;15.10;99.90;;;;;;4990357;28;20045;-35
2021/07/01 07:13:25;;;;;;;16.23;9.43;;;15.00;99.90;;;;;;4992490;28;20033;-35
2021/07/01 07:15:52;;;;;;;21.42;10.63;;;15.10;99.90;;;;;;4992140;28;20076;-35
2021/07/01 07:18:23;;;;;;;20.15;10.43;;;15.10;99.90;;;;;;4981206;28;20105;-34
2021/07/01 07:21:06;;;;;;;21.70;11.63;;;15.10;99.90;;;;;;4992680;28;20076;-35
2021/07/01 07:23:32;;;;;;;;;;;15.20;99.90;;;;;;4992307;28;20037;-35
2021/07/01 07:26:07;;;;;;;14.65;8.88;;;15.20;99.90;;;;;;4990795;28;20380;-35
2021/07/01 07:28:36;;;;;;;21.27;11.07;;;15.20;99.90;;;;;;4992765;28;20053;-35
2021/07/01 07:31:05;;;;;;;24.50;11.43;;;15.20;99.90;;;;;;4984934;28;20096;-35
2021/07/01 07:33:31;;;;;;;20.27;10.63;;;15.20;99.90;;;;;;4991764;28;20062;-35
2021/07/01 07:35:57;;;;;;;16.35;8.95;;;15.20;99.90;;;;;;4991595;28;20054;-35
2021/07/01 07:38:27;;;;;;;23.75;10.75;;;15.20;99.90;;;;;;4991297;28;20053;-34
2021/07/01 07:40:53;;;;;;;19.05;10.18;;;15.20;99.90;;;;;;4991750;28;20019;-35
2021/07/01 07:43:21;;;;;;;22.13;10.90;;;15.20;99.90;;;;;;4991764;28;20022;-35
2021/07/01 07:45:50;;;;;;;17.38;10.45;;;15.20;99.90;;;;;;4990823;28;20018;-35
2021/07/01 07:48:16;;;;;;;25.58;11.60;;;15.20;99.90;;;;;;4991179;28;20055;-34
2021/07/01 07:50:53;;;;;;;21.25;10.70;;;15.20;99.90;;;;;;4991984;28;20022;-34
2021/07/01 07:53:25;;;;;;;20.33;10.77;;;15.20;99.90;;;;;;4991220;28;20058;-34
2021/07/01 07:56:03;;;;;;;19.83;11.43;;;15.20;99.90;;;;;;4991318;28;20531;-34
2021/07/01 07:58:31;;;;;;;24.63;11.63;;;15.20;99.90;;;;;;4991027;28;20022;-35
2021/07/01 08:01:00;;;;;;;16.13;9.20;;;15.20;99.90;;;;;;4990809;28;20537;-34
2021/07/01 08:03:32;;;;;;;20.50;10.38;;;15.20;99.90;;;;;;4990945;28;20100;-35
2021/07/01 08:06:01;;;;;;;14.02;8.35;;;15.20;99.90;;;;;;4990655;28;20065;-35
2021/07/01 08:08:32;;;;;;;25.08;12.23;;;15.30;99.90;;;;;;4992351;28;20052;-34
2021/07/01 08:11:02;;;;;;;19.73;10.80;;;15.30;99.90;;;;;;4991007;28;20524;-35
2021/07/01 08:13:29;;;;;;;23.98;11.52;;;15.30;99.90;;;;;;4990666;28;20061;-35
2021/07/01 08:15:55;;;;;;;16.23;9.02;;;15.30;99.90;;;;;;4990847;28;20130;-35
2021/07/01 08:18:24;;;;;;;23.95;10.90;;;15.30;99.90;;;;;;4991995;28;20026;-34
2021/07/01 08:20:50;;;;;;;17.50;10.15;;;15.40;99.90;;;;;;4990673;28;20022;-34
2021/07/01 08:23:17;;;;;;;18.77;10.18;;;15.40;99.90;;;;;;4990736;28;20022;-34
2021/07/01 08:25:43;;;;;;;21.27;10.88;;;15.40;99.90;;;;;;4990449;28;20161;-34
2021/07/01 08:28:10;;;;;;;22.75;10.82;;;15.40;99.90;;;;;;4990472;28;20026;-34
2021/07/01 08:30:36;;;;;;;23.80;11.35;;;15.40;99.90;;;;;;4991253;28;20033;-34
2021/07/01 08:33:03;;;;;;;25.45;11.98;;;15.40;99.90;;;;;;4990299;28;20038;-34
2021/07/01 08:35:29;;;;;;;23.70;11.23;;;15.40;99.90;;;;;;4990134;28;20385;-34
2021/07/01 08:38:05;;;;;;;24.15;11.32;;;15.50;99.90;;;;;;4990341;28;20018;-34
2021/07/01 08:40:35;;;;;;;18.33;9.43;;;15.40;99.90;;;;;;4990088;28;20014;-34
2021/07/01 08:43:04;;;;;;;21.25;10.10;;;15.40;99.90;;;;;;4990297;28;20018;-34
2021/07/01 08:45:49;;;;;;;20.30;9.88;;;15.40;99.90;;;;;;4985294;28;20026;-34
2021/07/01 08:48:42;;;;;;;20.60;9.98;;;15.40;99.90;;;;;;4990201;28;20034;-35
2021/07/01 08:51:10;;;;;;;16.20;9.40;;;15.40;99.90;;;;;;4989678;28;20564;-35
2021/07/01 08:54:03;;;;;;;24.08;11.20;;;15.50;99.90;;;;;;4990656;28;20030;-35
2021/07/01 08:56:34;;;;;;;26.60;11.68;;;15.50;99.90;;;;;;4990444;28;20031;-35
2021/07/01 08:59:05;;;;;;;21.75;10.60;;;15.50;99.90;;;;;;4971167;28;20027;-35
2021/07/01 09:01:31;;;;;;;22.15;11.00;;;15.50;99.90;;;;;;4985289;28;20178;-34
2021/07/01 09:03:58;;;;;;;22.08;10.75;;;15.60;99.90;;;;;;4990173;28;20133;-35
2021/07/01 09:06:26;;;;;;;22.63;10.38;;;15.60;99.90;;;;;;4990642;28;20026;-35
2021/07/01 09:08:53;;;;;;;22.38;11.68;;;15.70;99.90;;;;;;4989699;28;20488;-35
2021/07/01 09:11:20;;;;;;;24.95;12.07;;;15.70;99.90;;;;;;4988589;28;20022;-35
2021/07/01 09:13:48;;;;;;;22.50;11.27;;;15.70;99.90;;;;;;4990007;28;20634;-35
2021/07/01 09:16:17;;;;;;;22.05;10.55;;;15.70;99.90;;;;;;4989485;28;20014;-34
2021/07/01 09:18:46;;;;;;;20.70;10.10;;;15.70;99.90;;;;;;4990611;28;20126;-35
2021/07/01 09:21:14;;;;;;;20.88;9.55;;;15.70;99.90;;;;;;4990449;28;20109;-35
2021/07/01 09:23:47;;;;;;;26.27;11.95;;;15.80;99.90;;;;;;4989693;28;20073;-35
2021/07/01 09:26:23;;;;;;;22.92;10.60;;;15.80;99.90;;;;;;4989535;28;20708;-34
2021/07/01 09:28:50;;;;;;;25.02;10.50;;;15.90;99.90;;;;;;4990095;28;20341;-35
2021/07/01 09:31:19;;;;;;;19.42;10.13;;;15.80;99.90;;;;;;4989694;28;20019;-35
2021/07/01 09:33:45;;;;;;;25.13;11.77;;;15.90;99.90;;;;;;4989925;28;20027;-34
2021/07/01 09:36:12;;;;;;;24.02;10.27;;;15.90;99.90;;;;;;4989918;28;20025;-35
2021/07/01 09:38:41;;;;;;;19.70;10.10;;;15.90;99.90;;;;;;4990156;28;20014;-34
2021/07/01 09:41:07;;;;;;;27.25;11.30;;;16.00;99.90;;;;;;4990365;28;20054;-35
2021/07/01 09:43:33;;;;;;;22.83;9.98;;;15.90;99.90;;;;;;4989543;28;20097;-35
2021/07/01 09:46:03;;;;;;;26.75;10.57;;;15.90;99.90;;;;;;4989931;28;20023;-35
2021/07/01 09:48:33;;;;;;;20.80;9.98;;;15.90;99.90;;;;;;4986214;28;20030;-35
2021/07/01 09:51:03;;;;;;;18.98;9.30;;;16.00;99.90;;;;;;4992067;28;20030;-35
2021/07/01 09:53:33;;;;;;;21.38;9.90;;;16.00;99.90;;;;;;4990819;28;20034;-35
2021/07/01 09:56:03;;;;;;;19.65;9.55;;;16.00;99.90;;;;;;4993153;28;20596;-34
2021/07/01 09:58:31;;;;;;;22.63;10.50;;;16.00;99.90;;;;;;4993271;28;20485;-34
2021/07/01 10:00:57;;;;;;;23.17;10.98;;;15.90;99.90;;;;;;4992482;28;20014;-34
2021/07/01 10:03:23;;;;;;;23.88;10.27;;;15.90;99.90;;;;;;4993358;28;20064;-34
2021/07/01 10:05:49;;;;;;;25.95;11.25;;;15.90;99.90;;;;;;4993639;28;20054;-35
2021/07/01 10:08:15;;;;;;;25.05;10.98;;;15.80;99.90;;;;;;4993265;28;20496;-35
2021/07/01 10:10:48;;;;;;;24.48;10.98;;;15.80;99.90;;;;;;4993271;28;20042;-35
2021/07/01 10:13:14;;;;;;;21.90;9.50;;;15.90;99.90;;;;;;4992404;28;20084;-34
2021/07/01 10:15:41;;;;;;;21.67;10.38;;;15.90;99.90;;;;;;4993583;28;20481;-35
2021/07/01 10:18:15;;;;;;;20.35;11.02;;;15.90;99.90;;;;;;4993387;28;20049;-35
2021/07/01 10:20:53;;;;;;;27.98;11.18;;;15.90;99.90;;;;;;4993063;28;20060;-35
2021/07/01 10:23:20;;;;;;;17.63;10.48;;;15.90;99.90;;;;;;4987421;28;20050;-35
2021/07/01 10:25:47;;;;;;;22.50;10.35;;;15.90;99.90;;;;;;4992458;28;20465;-34
2021/07/01 10:28:15;;;;;;;22.25;10.55;;;15.90;99.90;;;;;;4993606;28;20026;-34
2021/07/01 10:30:42;;;;;;;25.48;10.88;;;16.00;99.90;;;;;;4982619;28;20022;-34
2021/07/01 10:33:23;;;;;;;20.23;10.57;;;16.00;99.90;;;;;;4992019;28;20381;-35
2021/07/01 10:35:49;;;;;;;20.95;10.80;;;16.10;99.90;;;;;;4993139;28;20105;-35
2021/07/01 10:38:15;;;;;;;23.58;11.57;;;16.10;99.90;;;;;;4992260;28;20077;-35
2021/07/01 10:40:44;;;;;;;21.23;10.85;;;16.10;99.90;;;;;;4992569;28;20026;-35
2021/07/01 10:43:11;;;;;;;22.05;10.05;;;16.20;99.90;;;;;;4991783;28;20031;-34
2021/07/01 10:45:51;;;;;;;22.67;10.82;;;16.20;99.90;;;;;;4993540;28;20030;-35
2021/07/01 10:48:19;;;;;;;21.13;10.60;;;16.30;99.90;;;;;;4992371;28;20026;-35
2021/07/01 10:50:46;;;;;;;18.20;10.13;;;16.40;99.90;;;;;;4991543;28;20031;-35
2021/07/01 10:53:34;;;;;;;20.00;9.48;;;16.40;99.90;;;;;;4991407;28;20026;-35
2021/07/01 10:56:19;;;;;;;19.02;10.32;;;16.50;99.90;;;;;;4991200;28;20497;-35
2021/07/01 10:58:56;;;;;;;16.25;9.50;;;16.60;99.90;;;;;;4967936;28;20073;-35
2021/07/01 11:01:23;;;;;;;21.70;10.05;;;16.60;99.90;;;;;;4988754;28;20362;-35
2021/07/01 11:04:04;;;;;;;23.55;11.02;;;16.60;99.90;;;;;;4992120;28;20062;-34
2021/07/01 11:06:30;;;;;;;23.75;11.68;;;16.70;99.90;;;;;;4992756;28;20046;-35
2021/07/01 11:08:56;;;;;;;23.90;11.50;;;16.80;99.90;;;;;;4992022;28;20105;-35
2021/07/01 11:11:23;;;;;;;22.58;10.68;;;16.90;99.90;;;;;;4992456;28;20054;-35
2021/07/01 11:14:00;;;;;;;19.63;9.77;;;16.90;99.90;;;;;;4992852;28;20034;-34
2021/07/01 11:16:59;;;;;;;14.13;8.13;;;17.00;99.90;;;;;;4991909;28;20080;-35
2021/07/01 11:19:39;;;;;;;19.05;9.68;;;17.00;99.90;;;;;;4978316;28;20039;-35
2021/07/01 11:22:05;;;;;;;18.23;9.30;;;17.10;99.90;;;;;;4989312;28;20022;-35
2021/07/01 11:24:30;;;;;;;21.17;10.43;;;17.10;99.90;;;;;;4993211;28;20076;-34
2021/07/01 11:26:58;;;;;;;19.73;10.40;;;17.10;99.90;;;;;;4991557;28;20029;-34
2021/07/01 11:29:44;;;;;;;27.98;10.65;;;17.00;99.90;;;;;;4992053;28;20048;-35
2021/07/01 11:32:25;;;;;;;20.83;9.85;;;17.00;99.90;;;;;;4991937;28;20022;-34
2021/07/01 11:34:52;;;;;;;20.33;10.88;;;17.00;99.90;;;;;;4992363;28;20527;-35
2021/07/01 11:37:39;;;;;;;27.13;11.05;;;17.00;99.90;;;;;;4990134;28;20480;-35
2021/07/01 11:40:19;;;;;;;25.30;10.88;;;17.00;99.90;;;;;;4989482;28;20026;-35
2021/07/01 11:42:46;;;;;;;19.65;10.30;;;17.00;99.90;;;;;;4990160;28;20041;-34
2021/07/01 11:45:12;;;;;;;22.08;10.30;;;17.00;99.90;;;;;;4991268;28;20018;-34
2021/07/01 11:47:41;;;;;;;22.42;11.38;;;17.00;99.90;;;;;;4984300;28;20014;-35
2021/07/01 11:50:09;;;;;;;22.25;10.27;;;17.00;99.90;;;;;;4991089;28;20101;-35
2021/07/01 11:52:36;;;;;;;20.88;10.02;;;17.00;99.90;;;;;;4991698;28;20033;-35
2021/07/01 11:55:01;;;;;;;18.45;9.55;;;17.10;99.90;;;;;;4991974;28;20058;-35
2021/07/01 11:57:28;;;;;;;18.65;8.93;;;17.10;99.90;;;;;;4985077;28;20093;-34
2021/07/01 11:59:54;;;;;;;25.95;9.23;;;17.00;99.90;;;;;;4991548;28;20092;-35
2021/07/01 12:02:21;;;;;;;23.25;8.90;;;17.10;99.90;;;;;;4991656;28;20026;-35
2021/07/01 12:04:48;;;;;;;22.60;9.23;;;17.10;99.90;;;;;;4991280;28;20047;-34
2021/07/01 12:07:24;;;;;;;14.07;8.13;;;17.20;99.90;;;;;;4991108;28;20030;-34
2021/07/01 12:09:50;;;;;;;20.95;8.40;;;17.20;99.90;;;;;;4991638;28;20018;-35
2021/07/01 12:12:19;;;;;;;16.77;8.63;;;17.30;99.90;;;;;;4990836;28;20026;-35
2021/07/01 12:15:01;;;;;;;20.92;8.38;;;17.30;99.90;;;;;;4991984;28;20038;-35
2021/07/01 12:17:52;;;;;;;19.73;8.65;;;17.50;99.90;;;;;;4991060;28;20461;-34
2021/07/01 12:20:35;;;;;;;19.33;9.05;;;17.60;99.90;;;;;;4990784;28;20064;-35
2021/07/01 12:23:03;;;;;;;21.40;10.23;;;17.60;99.90;;;;;;4990573;28;20461;-35
2021/07/01 12:25:28;;;;;;;18.17;9.07;;;17.70;99.90;;;;;;4991363;28;20589;-36
2021/07/01 12:28:10;;;;;;;16.70;7.97;;;17.80;99.90;;;;;;4990162;28;20050;-35
2021/07/01 12:31:08;;;;;;;16.60;7.65;;;17.90;99.90;;;;;;4986791;28;20042;-35
2021/07/01 12:33:47;;;;;;;22.05;7.82;;;17.90;99.90;;;;;;4986286;28;20042;-35
2021/07/01 12:36:29;;;;;;;17.08;7.53;;;18.00;99.90;;;;;;4971761;28;20023;-35
2021/07/01 12:39:04;;;;;;;15.50;7.70;;;18.00;99.90;;;;;;4986775;28;20022;-35
2021/07/01 12:41:35;;;;;;;14.77;7.50;;;18.10;99.90;;;;;;4980548;28;20030;-35